Time;durP1;ratioP1;P1;durP2;ratioP2;P2;SDS_P1;SDS_P2;PMS_P1;PMS_P2;Temp;Humidity;BMP_temperature;BMP_pressure;BME280_temperature;BME280_humidity;BME280_pressure;Samples;Min_cycle;Max_cycle;Signal;HPM_P1;HPM_P2
2022/11/23 00:01:18;;;;;;;9.88;4.53;;;4.10;99.90;;;;;;5048044;28;20075;-59
2022/11/23 00:03:46;;;;;;;14.57;7.28;;;4.10;99.90;;;;;;5047916;28;20055;-60
2022/11/23 00:06:13;;;;;;;11.50;4.57;;;4.10;99.90;;;;;;5046826;28;20044;-61
2022/11/23 00:08:40;;;;;;;14.40;5.65;;;4.10;99.90;;;;;;5027643;28;20049;-60
2022/11/23 00:11:07;;;;;;;13.98;4.78;;;4.10;99.90;;;;;;5043034;28;20107;-60
2022/11/23 00:13:34;;;;;;;10.25;5.80;;;4.10;99.90;;;;;;5048284;28;20057;-59
2022/11/23 00:16:07;;;;;;;13.73;6.10;;;4.00;99.90;;;;;;5049874;28;20566;-60
2022/11/23 00:18:34;;;;;;;9.35;4.55;;;4.00;99.90;;;;;;5031945;28;20099;-60
2022/11/23 00:21:06;;;;;;;8.23;5.15;;;3.90;99.90;;;;;;5047371;28;20209;-60
2022/11/23 00:23:33;;;;;;;12.77;4.97;;;3.90;99.90;;;;;;5048085;28;20049;-60
2022/11/23 00:25:59;;;;;;;12.13;5.18;;;3.90;99.90;;;;;;5048645;28;20071;-61
2022/11/23 00:28:26;;;;;;;8.80;5.50;;;3.80;99.90;;;;;;5046831;28;20049;-61
2022/11/23 00:30:53;;;;;;;9.15;4.63;;;3.90;99.90;;;;;;5048168;28;20388;-61
2022/11/23 00:33:20;;;;;;;12.88;4.07;;;3.80;99.90;;;;;;5047783;28;20140;-61
2022/11/23 00:35:46;;;;;;;8.48;4.18;;;3.70;99.90;;;;;;5049549;28;20471;-61
2022/11/23 00:38:13;;;;;;;8.48;4.13;;;3.70;99.90;;;;;;5049436;28;20119;-60
2022/11/23 00:40:40;;;;;;;8.73;4.55;;;3.80;99.90;;;;;;5047706;28;20045;-61
2022/11/23 00:43:07;;;;;;;8.85;4.72;;;3.80;99.90;;;;;;5050849;28;20263;-61
2022/11/23 00:45:33;;;;;;;8.95;5.00;;;3.90;99.90;;;;;;5053025;28;20045;-61
2022/11/23 00:48:00;;;;;;;7.70;4.05;;;3.80;99.90;;;;;;5053498;28;20047;-61
2022/11/23 00:50:27;;;;;;;9.80;3.95;;;3.80;99.90;;;;;;5052074;28;20055;-60
2022/11/23 00:52:54;;;;;;;12.90;4.82;;;3.80;99.90;;;;;;5052185;28;20053;-60
2022/11/23 00:55:20;;;;;;;6.35;3.88;;;3.70;99.90;;;;;;5053319;28;20492;-60
2022/11/23 00:57:47;;;;;;;7.10;3.88;;;3.70;99.90;;;;;;5053421;28;20049;-60
2022/11/23 01:00:15;;;;;;;9.98;4.22;;;3.70;99.90;;;;;;5052636;28;20047;-60
2022/11/23 01:02:42;;;;;;;8.68;4.50;;;3.70;99.90;;;;;;5053047;28;20051;-60
2022/11/23 01:05:08;;;;;;;10.73;4.10;;;3.70;99.90;;;;;;5052928;28;20470;-61
2022/11/23 01:07:35;;;;;;;9.68;3.97;;;3.70;99.90;;;;;;5052922;28;20819;-61
2022/11/23 01:10:02;;;;;;;9.02;3.85;;;3.70;99.90;;;;;;5052722;28;20040;-60
2022/11/23 01:12:29;;;;;;;9.50;4.18;;;3.70;99.90;;;;;;5051626;28;20048;-60
2022/11/23 01:14:56;;;;;;;7.78;4.68;;;3.80;99.90;;;;;;5051485;28;20151;-60
2022/11/23 01:17:23;;;;;;;5.95;3.38;;;3.80;99.90;;;;;;5051756;28;20124;-60
2022/11/23 01:19:50;;;;;;;12.98;4.45;;;3.80;99.90;;;;;;5052992;28;20056;-60
2022/11/23 01:22:17;;;;;;;7.55;4.57;;;3.70;99.90;;;;;;5052717;28;20415;-60
2022/11/23 01:24:43;;;;;;;8.32;4.72;;;3.70;99.90;;;;;;5052723;28;20055;-60
2022/11/23 01:27:10;;;;;;;13.80;4.88;;;3.70;99.90;;;;;;5052545;28;20401;-60
2022/11/23 01:29:37;;;;;;;8.95;4.03;;;3.70;99.90;;;;;;5052495;28;20567;-60
2022/11/23 01:32:03;;;;;;;7.82;4.28;;;3.70;99.90;;;;;;5052476;28;20072;-60
2022/11/23 01:34:30;;;;;;;9.73;4.57;;;3.80;99.90;;;;;;4695904;28;10000289;-61
2022/11/23 01:36:57;;;;;;;8.55;4.05;;;3.70;99.90;;;;;;5055869;28;20052;-61
2022/11/23 01:39:24;;;;;;;8.50;3.92;;;3.80;99.90;;;;;;5051177;28;20409;-61
2022/11/23 01:41:51;;;;;;;10.23;4.80;;;3.80;99.90;;;;;;5051155;28;20107;-61
2022/11/23 01:44:28;;;;;;;8.20;3.47;;;3.70;99.90;;;;;;5052425;28;20048;-61
2022/11/23 01:46:59;;;;;;;8.50;3.45;;;3.90;99.90;;;;;;5052432;28;20055;-61
2022/11/23 01:49:28;;;;;;;6.60;2.97;;;4.10;99.90;;;;;;5051192;28;20063;-61
2022/11/23 01:51:57;;;;;;;6.93;2.90;;;4.40;99.90;;;;;;5034901;28;20045;-61
2022/11/23 01:54:31;;;;;;;10.57;3.55;;;4.60;99.90;;;;;;5050652;28;20060;-60
2022/11/23 01:57:01;;;;;;;8.40;3.50;;;4.70;99.90;;;;;;5051248;28;20049;-61
2022/11/23 01:59:27;;;;;;;6.65;2.70;;;4.90;99.90;;;;;;5050680;28;20132;-61
2022/11/23 02:01:55;;;;;;;7.78;2.60;;;5.10;99.90;;;;;;5051616;28;20048;-61
2022/11/23 02:04:24;;;;;;;4.57;2.40;;;5.10;99.90;;;;;;5051706;28;20045;-61
2022/11/23 02:06:50;;;;;;;4.68;2.22;;;5.20;99.90;;;;;;5050158;28;20063;-61
2022/11/23 02:09:17;;;;;;;6.53;2.40;;;5.20;99.90;;;;;;5050850;28;20079;-61
2022/11/23 02:11:44;;;;;;;5.35;1.90;;;5.30;99.90;;;;;;5034304;28;20479;-61
2022/11/23 02:14:10;;;;;;;2.95;1.83;;;5.30;99.90;;;;;;5051992;28;20045;-61
2022/11/23 02:16:37;;;;;;;4.70;2.40;;;5.40;99.90;;;;;;5051817;28;20083;-60
2022/11/23 02:19:07;;;;;;;6.35;2.10;;;5.40;99.90;;;;;;5051224;28;20045;-59
2022/11/23 02:21:34;;;;;;;4.57;2.17;;;5.40;99.90;;;;;;5050627;28;20048;-59
2022/11/23 02:24:06;;;;;;;6.30;1.95;;;5.40;99.90;;;;;;5050713;28;20059;-59
2022/11/23 02:26:34;;;;;;;5.95;1.85;;;5.60;99.90;;;;;;5050703;28;20045;-60
2022/11/23 02:29:11;;;;;;;4.60;2.13;;;5.60;99.90;;;;;;5050010;28;20053;-59
2022/11/23 02:31:37;;;;;;;6.07;1.70;;;5.60;99.90;;;;;;5030476;28;20451;-59
2022/11/23 02:34:04;;;;;;;4.85;1.60;;;5.50;99.90;;;;;;5044556;28;20049;-59
2022/11/23 02:36:35;;;;;;;4.68;1.55;;;5.50;99.90;;;;;;5050867;28;20415;-60
2022/11/23 02:39:23;;;;;;;2.00;1.13;;;5.40;99.90;;;;;;5051247;28;20080;-60
2022/11/23 02:41:51;;;;;;;4.45;2.08;;;5.40;99.90;;;;;;5050632;28;20387;-60
2022/11/23 02:44:36;;;;;;;5.15;1.77;;;5.40;99.90;;;;;;5051505;28;20037;-62
2022/11/23 02:47:03;;;;;;;7.55;1.77;;;5.30;99.90;;;;;;5034112;28;20419;-60
2022/11/23 02:49:30;;;;;;;9.18;2.97;;;5.30;99.90;;;;;;5050195;28;20075;-61
2022/11/23 02:51:57;;;;;;;4.75;1.67;;;5.30;99.90;;;;;;5052383;28;20132;-61
2022/11/23 02:54:24;;;;;;;2.92;1.52;;;5.30;99.90;;;;;;5034643;28;20045;-60
2022/11/23 02:56:51;;;;;;;3.53;1.67;;;5.20;99.90;;;;;;5052305;28;20045;-61
2022/11/23 02:59:17;;;;;;;6.10;1.30;;;5.20;99.90;;;;;;5052400;28;20041;-61
2022/11/23 03:01:44;;;;;;;10.35;4.47;;;5.20;99.90;;;;;;5053167;28;20049;-61
2022/11/23 03:04:11;;;;;;;3.70;1.52;;;5.10;99.90;;;;;;5051345;28;20056;-61
2022/11/23 03:06:38;;;;;;;4.90;1.75;;;5.10;99.90;;;;;;5049112;28;20559;-61
2022/11/23 03:09:05;;;;;;;3.08;1.52;;;5.10;99.90;;;;;;5050514;28;20436;-61
2022/11/23 03:11:32;;;;;;;3.95;1.50;;;5.10;99.90;;;;;;5049550;28;20053;-60
2022/11/23 03:13:59;;;;;;;5.25;2.72;;;5.00;99.90;;;;;;5033110;28;20057;-62
2022/11/23 03:16:25;;;;;;;6.65;1.50;;;5.00;99.90;;;;;;5033245;28;20340;-60
2022/11/23 03:18:52;;;;;;;2.47;1.38;;;4.90;99.90;;;;;;5050874;28;20044;-61
2022/11/23 03:21:19;;;;;;;7.25;1.92;;;4.90;99.90;;;;;;5050322;28;20041;-61
2022/11/23 03:23:46;;;;;;;3.42;1.63;;;4.90;99.90;;;;;;5051141;28;20055;-60
2022/11/23 03:26:12;;;;;;;3.30;1.40;;;4.80;99.90;;;;;;5033134;28;20056;-61
2022/11/23 03:28:39;;;;;;;3.13;1.42;;;4.80;99.90;;;;;;5050742;28;20051;-60
2022/11/23 03:31:06;;;;;;;6.32;1.63;;;4.70;99.90;;;;;;5050854;28;20064;-60
2022/11/23 03:33:33;;;;;;;5.20;2.30;;;4.70;99.90;;;;;;5051621;28;20055;-61
2022/11/23 03:35:59;;;;;;;12.00;3.97;;;4.70;99.90;;;;;;5052115;28;20246;-59
2022/11/23 03:38:26;;;;;;;6.65;1.42;;;4.70;99.90;;;;;;5051305;28;20067;-61
2022/11/23 03:40:53;;;;;;;3.78;1.63;;;4.80;99.90;;;;;;5052724;28;20127;-60
2022/11/23 03:43:20;;;;;;;3.67;1.50;;;4.80;99.90;;;;;;5052467;28;20075;-60
2022/11/23 03:45:47;;;;;;;5.75;1.85;;;4.70;99.90;;;;;;5052040;28;20131;-60
2022/11/23 03:48:14;;;;;;;11.75;1.63;;;4.70;99.90;;;;;;5051676;28;20049;-60
2022/11/23 03:50:40;;;;;;;2.15;1.30;;;4.70;99.90;;;;;;5051766;28;20511;-60
2022/11/23 03:53:07;;;;;;;3.97;1.70;;;4.70;99.90;;;;;;5050955;28;20492;-60
2022/11/23 03:55:34;;;;;;;3.70;1.73;;;4.70;99.90;;;;;;5050874;28;20498;-60
2022/11/23 03:58:02;;;;;;;8.02;1.73;;;4.60;99.90;;;;;;5050825;28;20052;-60
2022/11/23 04:00:29;;;;;;;3.95;1.75;;;4.70;99.90;;;;;;5050765;28;20111;-60
2022/11/23 04:02:56;;;;;;;3.58;1.77;;;4.70;99.90;;;;;;5044065;28;20041;-60
2022/11/23 04:05:23;;;;;;;3.30;1.85;;;4.70;99.90;;;;;;5036097;28;20053;-61
2022/11/23 04:07:49;;;;;;;2.67;1.55;;;4.60;99.90;;;;;;5048175;28;20045;-61
2022/11/23 04:10:17;;;;;;;6.22;2.10;;;4.60;99.90;;;;;;5049914;28;20053;-61
2022/11/23 04:12:44;;;;;;;3.60;1.40;;;4.50;99.90;;;;;;5049578;28;20054;-60
2022/11/23 04:15:10;;;;;;;8.35;2.47;;;4.50;99.90;;;;;;5049599;28;20502;-60
2022/11/23 04:17:37;;;;;;;9.07;2.67;;;4.40;99.90;;;;;;5048073;28;20502;-60
2022/11/23 04:20:05;;;;;;;6.25;1.92;;;4.40;99.90;;;;;;5048325;28;20556;-60
2022/11/23 04:22:32;;;;;;;5.82;1.52;;;4.40;99.90;;;;;;5049371;28;20049;-61
2022/11/23 04:24:58;;;;;;;3.75;1.52;;;4.40;99.90;;;;;;5049145;28;20059;-60
2022/11/23 04:27:25;;;;;;;3.38;1.63;;;4.50;99.90;;;;;;5049289;28;20139;-60
2022/11/23 04:29:52;;;;;;;4.05;1.63;;;4.50;99.90;;;;;;5048114;28;20474;-61
2022/11/23 04:32:19;;;;;;;5.63;2.05;;;4.50;99.90;;;;;;5049195;28;20037;-60
2022/11/23 04:34:45;;;;;;;9.38;2.20;;;4.50;99.90;;;;;;5047992;28;20529;-61
2022/11/23 04:37:12;;;;;;;4.13;1.75;;;4.50;99.90;;;;;;5049096;28;20044;-62
2022/11/23 04:39:39;;;;;;;8.40;2.33;;;4.50;99.90;;;;;;5049151;28;20514;-61
2022/11/23 04:42:06;;;;;;;7.72;2.03;;;4.50;99.90;;;;;;5048944;28;20044;-61
2022/11/23 04:44:32;;;;;;;5.25;2.08;;;4.50;99.90;;;;;;5048969;28;20052;-60
2022/11/23 04:46:59;;;;;;;5.88;2.10;;;4.50;99.90;;;;;;5031306;28;20124;-60
2022/11/23 04:49:26;;;;;;;11.32;4.97;;;4.50;99.90;;;;;;5047339;28;20056;-61
2022/11/23 04:51:53;;;;;;;3.55;1.73;;;4.60;99.90;;;;;;5049578;28;20053;-61
2022/11/23 04:54:19;;;;;;;6.22;2.75;;;4.50;99.90;;;;;;5048921;28;20044;-60
2022/11/23 04:56:46;;;;;;;4.88;1.77;;;4.40;99.90;;;;;;5049128;28;20049;-60
2022/11/23 04:59:13;;;;;;;7.35;2.00;;;4.40;99.90;;;;;;5048518;28;20064;-60
2022/11/23 05:01:40;;;;;;;11.43;2.25;;;4.40;99.90;;;;;;5048676;28;20037;-60
2022/11/23 05:04:06;;;;;;;6.10;1.67;;;4.50;99.90;;;;;;5048469;28;20045;-60
2022/11/23 05:06:33;;;;;;;6.38;2.40;;;4.50;99.90;;;;;;5048688;28;20064;-60
2022/11/23 05:09:00;;;;;;;5.53;1.92;;;4.50;99.90;;;;;;5048360;28;20056;-60
2022/11/23 05:11:27;;;;;;;3.88;1.75;;;4.60;99.90;;;;;;5048818;28;20124;-60
2022/11/23 05:13:53;;;;;;;13.02;2.35;;;4.60;99.90;;;;;;5048595;28;20420;-60
2022/11/23 05:16:20;;;;;;;7.10;1.48;;;4.70;99.90;;;;;;5048475;28;20056;-61
2022/11/23 05:18:47;;;;;;;5.72;1.60;;;4.80;99.90;;;;;;5048600;28;20060;-60
2022/11/23 05:21:13;;;;;;;6.18;1.65;;;4.90;99.90;;;;;;5048641;28;20140;-60
2022/11/23 05:23:40;;;;;;;5.97;1.77;;;5.00;99.90;;;;;;5048425;28;20045;-60
2022/11/23 05:26:07;;;;;;;8.10;1.83;;;5.10;99.90;;;;;;5036352;28;20140;-64
2022/11/23 05:28:33;;;;;;;5.30;2.47;;;5.20;99.90;;;;;;5047078;28;20063;-59
2022/11/23 05:31:08;;;;;;;3.78;1.38;;;5.20;99.90;;;;;;5051027;28;20070;-60
2022/11/23 05:33:35;;;;;;;8.00;1.80;;;5.20;99.90;;;;;;5050391;28;20480;-60
2022/11/23 05:36:02;;;;;;;13.80;1.67;;;5.30;99.90;;;;;;5052022;28;20041;-60
2022/11/23 05:38:28;;;;;;;9.45;1.98;;;5.30;99.90;;;;;;5050992;28;20175;-60
2022/11/23 05:40:55;;;;;;;8.13;1.70;;;5.30;99.90;;;;;;5052042;28;20056;-59
2022/11/23 05:43:22;;;;;;;10.00;2.22;;;5.30;99.90;;;;;;5051793;28;20707;-60
2022/11/23 05:45:48;;;;;;;10.35;1.98;;;5.30;99.90;;;;;;5051841;28;20045;-60
2022/11/23 05:48:15;;;;;;;8.00;1.83;;;5.40;99.90;;;;;;5052232;28;20060;-60
2022/11/23 05:50:42;;;;;;;10.43;2.00;;;5.40;99.90;;;;;;5051465;28;20518;-62
2022/11/23 05:53:09;;;;;;;14.48;1.92;;;5.50;99.90;;;;;;5051827;28;20071;-61
2022/11/23 05:55:35;;;;;;;12.43;2.22;;;5.50;99.90;;;;;;5050398;28;20052;-59
2022/11/23 05:58:02;;;;;;;7.18;1.60;;;5.60;99.90;;;;;;5051898;28;20127;-60
2022/11/23 06:00:29;;;;;;;7.55;3.17;;;5.60;99.90;;;;;;5051478;28;20102;-60
2022/11/23 06:03:00;;;;;;;11.63;2.70;;;5.60;99.90;;;;;;5050802;28;20056;-62
2022/11/23 06:05:27;;;;;;;18.17;2.75;;;5.60;99.90;;;;;;5051389;28;20132;-60
2022/11/23 06:07:54;;;;;;;11.95;1.85;;;5.70;99.90;;;;;;5050708;28;20055;-60
2022/11/23 06:10:21;;;;;;;16.20;2.85;;;5.90;99.90;;;;;;5051262;28;20517;-60
2022/11/23 06:12:51;;;;;;;10.35;2.60;;;6.00;99.90;;;;;;5051226;28;20037;-60
2022/11/23 06:15:18;;;;;;;12.55;1.90;;;6.20;99.90;;;;;;5051111;28;20072;-61
2022/11/23 06:17:45;;;;;;;12.60;2.88;;;6.20;99.90;;;;;;5050116;28;20132;-60
2022/11/23 06:20:12;;;;;;;17.50;2.78;;;6.30;99.90;;;;;;5051050;28;20049;-61
2022/11/23 06:22:38;;;;;;;7.55;2.47;;;6.40;99.90;;;;;;5049833;28;20051;-60
2022/11/23 06:25:05;;;;;;;17.67;2.70;;;6.40;99.90;;;;;;5050991;28;20045;-61
2022/11/23 06:27:32;;;;;;;15.57;2.80;;;6.50;99.90;;;;;;5050295;28;20047;-60
2022/11/23 06:29:59;;;;;;;17.00;2.60;;;6.50;99.90;;;;;;5049814;28;20067;-60
2022/11/23 06:32:25;;;;;;;14.20;3.00;;;6.60;99.90;;;;;;5050440;28;20131;-60
2022/11/23 06:34:52;;;;;;;18.80;2.60;;;6.60;99.90;;;;;;5050606;28;20059;-59
2022/11/23 06:37:25;;;;;;;23.63;3.28;;;6.70;99.90;;;;;;5049494;28;20055;-59
2022/11/23 06:39:51;;;;;;;11.25;1.95;;;6.80;99.90;;;;;;5049111;28;20524;-59
2022/11/23 06:42:18;;;;;;;14.10;2.35;;;6.90;99.90;;;;;;5048787;28;20128;-59
2022/11/23 06:45:06;;;;;;;10.27;1.65;;;7.00;99.90;;;;;;5048831;28;20072;-59
2022/11/23 06:47:32;;;;;;;16.58;2.50;;;7.10;99.90;;;;;;5050643;28;20045;-59
2022/11/23 06:49:59;;;;;;;6.70;1.77;;;7.30;99.90;;;;;;5050195;28;20057;-59
2022/11/23 06:52:26;;;;;;;15.50;2.88;;;7.30;99.90;;;;;;5050313;28;20045;-59
2022/11/23 06:54:52;;;;;;;16.85;3.67;;;7.40;99.90;;;;;;5050919;28;20072;-60
2022/11/23 06:57:19;;;;;;;16.15;4.13;;;7.50;99.90;;;;;;5050748;28;20037;-60
2022/11/23 06:59:47;;;;;;;11.82;2.03;;;7.50;99.90;;;;;;5050526;28;20195;-60
2022/11/23 07:02:14;;;;;;;10.93;1.60;;;7.60;99.90;;;;;;5050656;28;20044;-60
2022/11/23 07:04:40;;;;;;;12.55;1.83;;;7.60;99.90;;;;;;5050570;28;20132;-60
2022/11/23 07:07:07;;;;;;;13.25;2.50;;;7.60;99.90;;;;;;5049419;28;20088;-60
2022/11/23 07:09:34;;;;;;;10.23;3.05;;;7.60;99.90;;;;;;5042838;28;20504;-60
2022/11/23 07:12:01;;;;;;;10.80;2.05;;;7.70;99.90;;;;;;5055154;28;20128;-60
2022/11/23 07:14:28;;;;;;;13.20;2.03;;;7.70;99.90;;;;;;5049924;28;20087;-60
2022/11/23 07:16:55;;;;;;;11.80;1.95;;;7.70;99.90;;;;;;5051038;28;20056;-60
2022/11/23 07:19:21;;;;;;;5.10;1.58;;;7.80;99.90;;;;;;5049200;28;20132;-59
2022/11/23 07:21:48;;;;;;;13.85;1.80;;;7.80;99.90;;;;;;5050292;28;20059;-59
2022/11/23 07:24:15;;;;;;;16.92;2.03;;;7.80;99.90;;;;;;5049105;28;20059;-60
2022/11/23 07:26:42;;;;;;;9.13;1.85;;;7.80;99.90;;;;;;5050766;28;20060;-59
2022/11/23 07:29:09;;;;;;;14.90;2.17;;;7.90;99.90;;;;;;5050040;28;20131;-59
2022/11/23 07:31:36;;;;;;;14.95;4.28;;;8.00;99.90;;;;;;5049639;28;20061;-59
2022/11/23 07:34:03;;;;;;;18.60;3.40;;;8.00;99.90;;;;;;5048875;28;20140;-60
2022/11/23 07:36:30;;;;;;;8.45;2.72;;;8.10;99.90;;;;;;5031482;28;20080;-60
2022/11/23 07:38:57;;;;;;;7.13;2.40;;;8.20;99.90;;;;;;5048525;28;20048;-59
2022/11/23 07:41:26;;;;;;;9.40;1.52;;;8.20;99.90;;;;;;5047362;28;20053;-60
2022/11/23 07:43:53;;;;;;;9.23;2.47;;;8.30;99.90;;;;;;5048456;28;20068;-60
2022/11/23 07:46:19;;;;;;;7.70;1.52;;;8.30;99.90;;;;;;5048554;28;20049;-60
2022/11/23 07:48:46;;;;;;;10.10;1.65;;;8.30;99.90;;;;;;5048391;28;20462;-60
2022/11/23 07:51:15;;;;;;;3.75;1.30;;;8.30;99.90;;;;;;5048987;28;20052;-60
2022/11/23 07:53:41;;;;;;;13.45;2.90;;;8.40;99.90;;;;;;5047505;28;20114;-59
2022/11/23 07:56:08;;;;;;;5.00;1.30;;;8.40;99.90;;;;;;5049468;28;20393;-60
2022/11/23 07:58:35;;;;;;;6.68;1.30;;;8.40;99.90;;;;;;5049218;28;20055;-60
2022/11/23 08:01:02;;;;;;;9.35;1.42;;;8.40;99.90;;;;;;5047811;28;20041;-60
2022/11/23 08:03:28;;;;;;;2.65;1.23;;;8.50;99.90;;;;;;5047959;28;20049;-60
2022/11/23 08:05:56;;;;;;;6.10;1.98;;;8.50;99.90;;;;;;5049011;28;20053;-60
2022/11/23 08:08:23;;;;;;;2.25;0.90;;;8.50;99.90;;;;;;5048581;28;20429;-60
2022/11/23 08:10:49;;;;;;;6.45;1.98;;;8.50;99.90;;;;;;5048984;28;20128;-60
2022/11/23 08:13:20;;;;;;;6.35;0.90;;;8.60;99.90;;;;;;5046548;28;20041;-59
2022/11/23 08:15:47;;;;;;;3.33;1.23;;;8.60;99.90;;;;;;5047221;28;20053;-59
2022/11/23 08:18:20;;;;;;;3.45;1.08;;;8.60;99.90;;;;;;5047849;28;20543;-58
2022/11/23 08:20:47;;;;;;;3.38;1.13;;;8.70;99.90;;;;;;5045046;28;20104;-59
2022/11/23 08:23:14;;;;;;;6.88;1.05;;;8.70;99.90;;;;;;5047834;28;20081;-60
2022/11/23 08:25:40;;;;;;;2.85;0.73;;;8.80;99.90;;;;;;5046291;28;20053;-60
2022/11/23 08:28:07;;;;;;;2.80;0.80;;;8.80;99.90;;;;;;5046043;28;20550;-59
2022/11/23 08:30:34;;;;;;;2.78;1.02;;;8.90;99.90;;;;;;5048761;28;20077;-60
2022/11/23 08:33:04;;;;;;;4.10;0.90;;;8.90;99.90;;;;;;5049060;28;20586;-58
2022/11/23 08:35:38;;;;;;;4.07;1.08;;;9.00;99.90;;;;;;5048515;28;20136;-60
2022/11/23 08:38:05;;;;;;;1.85;0.77;;;9.00;99.90;;;;;;5047548;28;20047;-61
2022/11/23 08:40:32;;;;;;;1.08;0.60;;;9.10;99.90;;;;;;5048235;28;20181;-62
2022/11/23 08:42:59;;;;;;;7.55;1.10;;;9.10;99.90;;;;;;5048116;28;20068;-61
2022/11/23 08:45:26;;;;;;;3.20;0.90;;;9.20;99.90;;;;;;5048616;28;20107;-61
2022/11/23 08:47:54;;;;;;;3.30;1.13;;;9.20;99.90;;;;;;5047529;28;20124;-61
2022/11/23 08:50:21;;;;;;;3.85;0.90;;;9.20;99.90;;;;;;5048659;28;20037;-62
2022/11/23 08:52:53;;;;;;;1.83;0.90;;;9.20;99.90;;;;;;5047023;28;20087;-62
2022/11/23 08:55:19;;;;;;;2.65;0.98;;;9.30;99.90;;;;;;5014198;28;20052;-61
2022/11/23 08:57:46;;;;;;;2.58;0.50;;;9.30;99.90;;;;;;5049012;28;20100;-61
2022/11/23 09:00:13;;;;;;;4.93;1.15;;;9.30;99.90;;;;;;5047690;28;20049;-60
2022/11/23 09:02:40;;;;;;;3.20;0.77;;;9.40;99.90;;;;;;5047428;28;20903;-61
2022/11/23 09:05:08;;;;;;;1.27;0.60;;;9.40;99.90;;;;;;5050309;28;20098;-61
2022/11/23 09:07:34;;;;;;;6.25;1.23;;;9.40;99.90;;;;;;5051002;28;20503;-60
2022/11/23 09:10:01;;;;;;;1.05;0.63;;;9.40;99.90;;;;;;5052679;28;20052;-61
2022/11/23 09:12:28;;;;;;;2.47;0.73;;;9.40;99.90;;;;;;5052170;28;20040;-61
2022/11/23 09:14:55;;;;;;;2.05;0.73;;;9.40;99.90;;;;;;5050711;28;20082;-61
2022/11/23 09:17:22;;;;;;;5.40;1.00;;;9.40;99.90;;;;;;5052351;28;20055;-61
2022/11/23 09:19:49;;;;;;;2.50;0.90;;;9.50;99.90;;;;;;5052256;28;20045;-60
2022/11/23 09:22:16;;;;;;;1.50;0.40;;;9.50;99.90;;;;;;5052053;28;20124;-61
2022/11/23 09:24:42;;;;;;;6.97;0.60;;;9.50;99.90;;;;;;5053110;28;20470;-61
2022/11/23 09:27:09;;;;;;;2.10;1.05;;;9.60;99.90;;;;;;5051785;28;20041;-62
2022/11/23 09:29:36;;;;;;;3.20;1.40;;;9.60;99.90;;;;;;5052538;28;20071;-61
2022/11/23 09:32:03;;;;;;;1.77;0.50;;;9.70;99.90;;;;;;5051982;28;20570;-59
2022/11/23 09:34:30;;;;;;;2.85;0.65;;;9.80;99.90;;;;;;5050117;28;20139;-61
2022/11/23 09:36:57;;;;;;;0.98;0.38;;;9.90;99.90;;;;;;5050824;28;20128;-60
2022/11/23 09:39:24;;;;;;;7.35;0.98;;;10.00;99.90;;;;;;5052227;28;20049;-61
2022/11/23 09:42:17;;;;;;;8.05;1.00;;;10.20;99.90;;;;;;5051309;28;20519;-60
2022/11/23 09:45:13;;;;;;;3.53;1.15;;;10.30;99.90;;;;;;5046500;28;20173;-61
2022/11/23 09:48:01;;;;;;;5.35;1.00;;;10.40;99.90;;;;;;5042166;28;20127;-60
2022/11/23 09:50:53;;;;;;;6.72;1.20;;;10.30;99.90;;;;;;5033985;28;20266;-61
2022/11/23 09:53:31;;;;;;;8.65;1.23;;;10.30;99.90;;;;;;5048717;28;20048;-60
2022/11/23 09:55:57;;;;;;;6.75;0.88;;;10.30;99.90;;;;;;5051085;28;20490;-61
2022/11/23 09:58:28;;;;;;;7.03;1.00;;;10.20;99.90;;;;;;5050783;28;20072;-61
2022/11/23 10:01:05;;;;;;;6.80;1.17;;;10.20;99.90;;;;;;5049506;28;20591;-61
2022/11/23 10:03:34;;;;;;;4.00;0.82;;;10.20;99.90;;;;;;5050798;28;20273;-61
2022/11/23 10:06:04;;;;;;;9.45;1.27;;;10.30;99.90;;;;;;5049207;28;20136;-60
2022/11/23 10:08:52;;;;;;;5.18;0.90;;;10.20;99.90;;;;;;5050379;28;20045;-61
2022/11/23 10:11:25;;;;;;;8.55;1.45;;;10.20;99.90;;;;;;5049629;28;20045;-61
2022/11/23 10:14:12;;;;;;;5.53;1.30;;;10.20;99.90;;;;;;5050598;28;20511;-61
2022/11/23 10:16:51;;;;;;;6.53;1.20;;;10.20;99.90;;;;;;5032284;28;20063;-61
2022/11/23 10:19:36;;;;;;;8.93;1.52;;;10.20;99.90;;;;;;5050348;28;20045;-61
2022/11/23 10:22:05;;;;;;;13.15;1.73;;;10.20;99.90;;;;;;5050798;28;20124;-61
2022/11/23 10:24:34;;;;;;;8.77;1.55;;;10.10;99.90;;;;;;5049117;28;20519;-61
2022/11/23 10:27:01;;;;;;;4.45;1.45;;;10.10;99.90;;;;;;5048902;28;20534;-60
2022/11/23 10:29:34;;;;;;;13.60;1.73;;;10.00;99.90;;;;;;5048864;28;20059;-60
2022/11/23 10:32:00;;;;;;;18.10;1.65;;;10.00;99.90;;;;;;5040548;28;20460;-60
2022/11/23 10:35:04;;;;;;;6.10;1.17;;;10.00;99.90;;;;;;5050260;28;20053;-61
2022/11/23 10:37:31;;;;;;;3.58;1.52;;;10.00;99.90;;;;;;5048773;28;20057;-61
2022/11/23 10:39:58;;;;;;;8.05;1.40;;;9.90;99.90;;;;;;5048729;28;20041;-61
2022/11/23 10:42:35;;;;;;;8.07;1.13;;;10.00;99.90;;;;;;5050291;28;20421;-61
2022/11/23 10:45:03;;;;;;;7.05;1.20;;;10.00;99.90;;;;;;5012121;28;20041;-61
2022/11/23 10:47:38;;;;;;;4.60;1.38;;;10.00;99.90;;;;;;5044969;28;20080;-61
2022/11/23 10:50:23;;;;;;;15.35;1.92;;;10.10;99.90;;;;;;5048544;28;20045;-61
2022/11/23 10:52:58;;;;;;;7.20;1.80;;;10.10;99.90;;;;;;5050315;28;20049;-61
2022/11/23 10:55:27;;;;;;;13.32;1.50;;;10.20;99.90;;;;;;5048831;28;20047;-61
2022/11/23 10:57:54;;;;;;;16.23;1.88;;;10.30;99.90;;;;;;5049166;28;20051;-61
2022/11/23 11:00:22;;;;;;;5.15;1.48;;;10.30;99.90;;;;;;5049087;28;20399;-60
2022/11/23 11:02:56;;;;;;;8.73;2.00;;;10.40;99.90;;;;;;5050108;28;20534;-61
2022/11/23 11:05:29;;;;;;;10.65;1.42;;;10.40;99.90;;;;;;5051105;28;20092;-62
2022/11/23 11:08:17;;;;;;;17.20;3.70;;;10.40;99.90;;;;;;5038047;28;20060;-61
2022/11/23 11:10:51;;;;;;;9.27;1.90;;;10.50;99.90;;;;;;5053364;28;20049;-61
2022/11/23 11:13:24;;;;;;;10.40;1.13;;;10.50;99.90;;;;;;5057725;28;20091;-62
2022/11/23 11:16:11;;;;;;;11.63;5.03;;;10.60;99.90;;;;;;5057398;28;20089;-60
2022/11/23 11:18:38;;;;;;;8.32;1.80;;;10.60;99.90;;;;;;5051464;28;20091;-60
2022/11/23 11:21:07;;;;;;;10.20;1.30;;;10.60;99.90;;;;;;5053899;28;20040;-60
2022/11/23 11:23:34;;;;;;;11.98;1.67;;;10.70;99.90;;;;;;5050982;28;20045;-61
2022/11/23 11:26:21;;;;;;;14.20;3.53;;;10.70;99.90;;;;;;5048821;28;20492;-61
2022/11/23 11:28:58;;;;;;;10.95;1.35;;;10.70;99.90;;;;;;5048145;28;20059;-61
2022/11/23 11:31:33;;;;;;;12.05;1.70;;;10.80;99.90;;;;;;5032960;28;20047;-61
2022/11/23 11:34:25;;;;;;;3.67;1.52;;;10.80;99.90;;;;;;5049820;28;20048;-61
2022/11/23 11:37:13;;;;;;;10.77;1.42;;;10.80;99.90;;;;;;5049677;28;20076;-61
2022/11/23 11:39:47;;;;;;;4.38;2.22;;;10.80;99.90;;;;;;5046838;28;20048;-61
2022/11/23 11:42:20;;;;;;;11.23;2.05;;;10.80;99.90;;;;;;5048292;28;20049;-60
2022/11/23 11:44:47;;;;;;;10.23;1.65;;;10.80;99.90;;;;;;5046055;28;20045;-61
2022/11/23 11:47:49;;;;;;;9.25;1.92;;;10.80;99.90;;;;;;5047553;28;20135;-62
2022/11/23 11:50:24;;;;;;;12.45;1.98;;;10.80;99.90;;;;;;5026778;28;20202;-61
2022/11/23 11:53:07;;;;;;;11.43;2.05;;;10.80;99.90;;;;;;5044331;28;20045;-62
2022/11/23 11:55:53;;;;;;;10.75;2.50;;;10.90;99.90;;;;;;5047951;28;20049;-61
2022/11/23 11:58:20;;;;;;;15.55;2.20;;;10.90;99.90;;;;;;5047325;28;20113;-63
2022/11/23 12:00:47;;;;;;;18.38;2.03;;;10.90;99.90;;;;;;5047555;28;20139;-60
2022/11/23 12:03:33;;;;;;;15.38;3.20;;;11.00;99.90;;;;;;5047469;28;20103;-60
2022/11/23 12:06:05;;;;;;;12.20;3.28;;;11.00;99.90;;;;;;5034545;28;20136;-61
2022/11/23 12:08:50;;;;;;;14.68;2.88;;;11.00;99.90;;;;;;5047105;28;20173;-60
2022/11/23 12:11:18;;;;;;;13.88;4.38;;;11.00;99.90;;;;;;5029179;28;20053;-60
2022/11/23 12:13:45;;;;;;;22.45;3.17;;;11.00;99.90;;;;;;5046353;28;20045;-60
2022/11/23 12:16:37;;;;;;;16.13;3.25;;;11.10;99.90;;;;;;5047549;28;20467;-60
2022/11/23 12:19:17;;;;;;;12.63;2.70;;;11.10;99.90;;;;;;5048217;28;20430;-61
2022/11/23 12:22:11;;;;;;;13.52;1.92;;;11.10;99.90;;;;;;5047807;28;20084;-61
2022/11/23 12:24:56;;;;;;;8.87;2.93;;;11.10;99.90;;;;;;5044117;28;20052;-60
2022/11/23 12:27:41;;;;;;;16.83;2.60;;;11.20;99.90;;;;;;5048527;28;20292;-60
2022/11/23 12:30:29;;;;;;;29.92;3.03;;;11.20;99.90;;;;;;5036348;28;20041;-61
2022/11/23 12:33:33;;;;;;;22.48;2.78;;;11.20;99.90;;;;;;5048403;28;20048;-61
2022/11/23 12:36:05;;;;;;;19.77;2.88;;;11.20;99.90;;;;;;5041115;28;20148;-61
2022/11/23 12:38:38;;;;;;;22.88;2.88;;;11.20;99.90;;;;;;5048618;28;20499;-61
2022/11/23 12:41:22;;;;;;;25.98;5.13;;;11.20;99.90;;;;;;5052468;28;20071;-61
2022/11/23 12:44:10;;;;;;;21.70;3.45;;;11.30;99.90;;;;;;5051058;28;20634;-62
2022/11/23 12:47:11;;;;;;;21.58;2.65;;;11.30;99.90;;;;;;5052271;28;20526;-60
2022/11/23 12:49:43;;;;;;;15.68;2.78;;;11.30;99.90;;;;;;5050882;28;20045;-61
2022/11/23 12:52:31;;;;;;;9.38;3.05;;;11.40;99.90;;;;;;5051312;28;20049;-61
2022/11/23 12:55:37;;;;;;;13.60;3.55;;;11.40;99.90;;;;;;5051883;28;20044;-60
2022/11/23 12:58:26;;;;;;;14.98;3.67;;;11.40;99.90;;;;;;5051003;28;20055;-61
2022/11/23 13:01:16;;;;;;;12.02;2.60;;;11.40;99.90;;;;;;5049021;28;20128;-61
2022/11/23 13:03:51;;;;;;;10.65;2.17;;;11.40;99.90;;;;;;5052360;28;20304;-61
2022/11/23 13:06:41;;;;;;;20.35;3.33;;;11.40;99.90;;;;;;5050665;28;20055;-60